createdAt,value
2022-08-26T00:01:02.171Z,81.34
2022-08-26T00:05:10.746Z,81.74
2022-08-26T00:09:18.331Z,82.03
2022-08-26T00:13:26.405Z,81.99
2022-08-26T00:17:34.342Z,81.73
2022-08-26T00:21:42.511Z,81.66
2022-08-26T00:25:50.465Z,81.93
2022-08-26T00:29:58.258Z,82.15
2022-08-26T00:34:06.063Z,81.92
2022-08-26T00:38:14.326Z,82.06
2022-08-26T00:42:23.718Z,82.10
2022-08-26T00:46:33.536Z,82.35
2022-08-26T00:50:43.673Z,82.55
2022-08-26T00:54:55.992Z,82.65
2022-08-26T00:59:07.568Z,83.08
2022-08-26T01:03:15.809Z,83.19
2022-08-26T01:07:23.422Z,83.05
2022-08-26T01:11:31.267Z,82.83
2022-08-26T01:15:44.495Z,82.92
2022-08-26T01:19:53.924Z,82.88
2022-08-26T01:24:02.107Z,82.73
2022-08-26T01:28:14.478Z,82.67
2022-08-26T01:32:25.949Z,83.38
2022-08-26T01:36:35.227Z,83.54
2022-08-26T01:40:44.501Z,83.66
2022-08-26T01:44:56.087Z,83.59
2022-08-26T01:49:06.892Z,83.61
2022-08-26T01:53:21.409Z,83.52
2022-08-26T01:57:32.210Z,83.30
2022-08-26T02:01:40.247Z,83.32
2022-08-26T02:05:51.467Z,83.51
2022-08-26T02:09:59.772Z,83.59
2022-08-26T02:14:13.112Z,83.70
2022-08-26T02:18:21.309Z,83.74
2022-08-26T02:22:31.995Z,83.72
2022-08-26T02:26:41.806Z,83.78
2022-08-26T02:30:50.497Z,83.97
2022-08-26T02:34:58.665Z,83.99
2022-08-26T02:39:06.784Z,84.03
2022-08-26T02:43:14.856Z,84.13
2022-08-26T02:47:24.905Z,84.42
2022-08-26T02:51:32.572Z,84.33
2022-08-26T02:55:42.512Z,84.48
2022-08-26T02:59:51.041Z,84.57
2022-08-26T03:03:59.608Z,84.48
2022-08-26T03:08:07.228Z,84.46
2022-08-26T03:12:15.068Z,84.63
2022-08-26T03:16:23.171Z,84.80
2022-08-26T03:20:31.900Z,84.78
2022-08-26T03:24:40.257Z,84.85
2022-08-26T03:29:05.584Z,84.70
2022-08-26T03:33:14.350Z,84.78
2022-08-26T03:37:22.415Z,84.81
2022-08-26T03:41:33.142Z,84.82
2022-08-26T03:45:41.260Z,84.83
2022-08-26T03:49:50.711Z,84.81
2022-08-26T03:54:01.078Z,85.00
2022-08-26T03:58:10.330Z,85.06
2022-08-26T04:02:19.520Z,84.94
2022-08-26T04:06:29.743Z,85.00
2022-08-26T04:10:40.591Z,85.06
2022-08-26T04:14:48.663Z,85.10
2022-08-26T04:18:57.526Z,85.08
2022-08-26T04:23:05.831Z,85.05
2022-08-26T04:27:15.241Z,85.16
2022-08-26T04:31:26.519Z,85.20
2022-08-26T04:35:38.725Z,85.35
2022-08-26T04:39:54.361Z,85.49
2022-08-26T04:44:09.902Z,85.74
2022-08-26T04:48:18.146Z,85.78
2022-08-26T04:52:25.918Z,85.78
2022-08-26T04:56:38.477Z,85.73
2022-08-26T05:00:49.226Z,85.66
2022-08-26T05:04:57.297Z,85.76
2022-08-26T05:09:05.200Z,85.82
2022-08-26T05:13:15.544Z,85.57
2022-08-26T05:17:23.828Z,85.72
2022-08-26T05:21:31.586Z,85.82
2022-08-26T05:25:42.164Z,85.82
2022-08-26T05:29:54.353Z,85.74
2022-08-26T05:34:05.053Z,85.53
2022-08-26T05:38:15.815Z,85.62
2022-08-26T05:42:25.416Z,85.80
2022-08-26T05:46:33.217Z,85.89
2022-08-26T05:50:47.794Z,85.99
2022-08-26T05:54:55.741Z,85.81
2022-08-26T05:59:03.709Z,85.85
2022-08-26T06:03:14.615Z,85.87
2022-08-26T06:07:43.772Z,86.01
2022-08-26T06:11:51.607Z,86.06
2022-08-26T06:16:00.563Z,85.77
2022-08-26T06:20:09.807Z,85.45
2022-08-26T06:24:35.307Z,85.42
2022-08-26T06:28:45.490Z,85.45
2022-08-26T06:32:53.502Z,85.40
2022-08-26T06:37:03.757Z,85.28
2022-08-26T06:41:12.097Z,85.19
2022-08-26T06:45:20.027Z,85.05
2022-08-26T06:49:28.128Z,84.97
2022-08-26T06:53:37.002Z,85.24
2022-08-26T06:57:44.888Z,85.16
2022-08-26T07:01:55.227Z,85.14
2022-08-26T07:06:07.385Z,84.76
2022-08-26T07:10:15.782Z,84.78
2022-08-26T07:14:26.179Z,84.77
2022-08-26T07:18:34.019Z,84.84
2022-08-26T07:22:42.563Z,84.79
2022-08-26T07:26:50.536Z,84.80
2022-08-26T07:31:00.747Z,84.81
2022-08-26T07:35:09.928Z,84.53
2022-08-26T07:39:17.514Z,84.83
2022-08-26T07:43:25.268Z,84.56
2022-08-26T07:47:33.429Z,84.63
2022-08-26T07:51:42.389Z,84.67
2022-08-26T07:55:50.138Z,85.01
2022-08-26T07:59:58.505Z,84.70
2022-08-26T08:04:09.066Z,84.53
2022-08-26T08:08:27.652Z,84.10
2022-08-26T08:12:37.347Z,83.59
2022-08-26T08:16:47.021Z,83.35
2022-08-26T08:21:21.081Z,83.17
2022-08-26T08:25:30.917Z,83.06
2022-08-26T08:29:39.648Z,82.84
2022-08-26T08:33:48.894Z,82.17
2022-08-26T08:38:00.129Z,81.71
2022-08-26T08:42:35.862Z,81.61
2022-08-26T08:46:44.875Z,81.25
2022-08-26T08:50:54.036Z,80.55
2022-08-26T08:55:02.257Z,80.83
2022-08-26T08:59:16.462Z,80.80
2022-08-26T09:03:42.847Z,80.10
2022-08-26T09:07:53.824Z,80.72
2022-08-26T09:12:04.386Z,80.00
2022-08-26T09:16:15.404Z,78.38
2022-08-26T09:20:37.381Z,78.11
2022-08-26T09:24:48.482Z,78.09
2022-08-26T09:29:00.915Z,77.34
2022-08-26T09:33:11.357Z,76.33
2022-08-26T09:37:40.157Z,77.03
2022-08-26T09:42:07.172Z,76.31
2022-08-26T09:46:19.100Z,76.20
2022-08-26T09:50:30.436Z,75.05
2022-08-26T09:54:39.288Z,74.84
2022-08-26T09:58:49.250Z,72.60
2022-08-26T10:03:08.220Z,70.96
2022-08-26T10:07:16.621Z,71.35
2022-08-26T10:11:31.381Z,69.34
2022-08-26T10:15:50.005Z,67.42
2022-08-26T10:20:01.580Z,66.21
2022-08-26T10:24:11.994Z,65.59
2022-08-26T10:28:27.402Z,65.92
2022-08-26T10:32:41.502Z,64.32
2022-08-26T10:37:16.157Z,64.92
2022-08-26T10:41:25.907Z,63.43
2022-08-26T10:45:38.568Z,60.01
2022-08-26T10:49:47.263Z,60.15
2022-08-26T10:53:58.902Z,60.09
2022-08-26T10:58:26.396Z,59.53
2022-08-26T11:02:40.612Z,57.01
2022-08-26T11:07:35.952Z,57.32
2022-08-26T11:11:53.777Z,56.02
2022-08-26T11:16:02.671Z,53.47
2022-08-26T11:20:14.154Z,53.02
2022-08-26T11:24:47.638Z,53.94
2022-08-26T11:28:56.201Z,54.32
2022-08-26T11:33:03.827Z,53.89
2022-08-26T11:41:32.001Z,51.96
2022-08-26T11:45:42.200Z,51.48
2022-08-26T11:49:49.950Z,50.10
2022-08-26T11:54:12.873Z,49.71
2022-08-26T11:58:21.349Z,49.16
2022-08-26T12:02:30.886Z,49.68
2022-08-26T12:06:45.696Z,49.47
2022-08-26T12:11:06.922Z,49.20
2022-08-26T12:15:19.333Z,49.19
2022-08-26T12:19:33.016Z,49.09
2022-08-26T12:23:48.529Z,48.63
2022-08-26T12:28:09.583Z,46.89
2022-08-26T12:32:32.250Z,45.37
2022-08-26T12:36:49.278Z,45.72
2022-08-26T12:41:10.658Z,43.93
2022-08-26T12:45:33.535Z,43.02
2022-08-26T12:49:50.451Z,42.71
2022-08-26T12:53:59.427Z,43.21
2022-08-26T12:58:29.752Z,42.04
2022-08-26T13:02:41.449Z,41.91
2022-08-26T13:06:49.418Z,42.28
2022-08-26T13:11:10.669Z,41.97
2022-08-26T13:15:18.167Z,41.28
2022-08-26T13:19:27.418Z,41.23
2022-08-26T13:23:38.386Z,41.43
2022-08-26T13:27:49.296Z,42.18
2022-08-26T13:31:58.014Z,41.85
2022-08-26T13:36:09.250Z,41.61
2022-08-26T13:40:17.889Z,40.81
2022-08-26T13:44:25.677Z,40.78
2022-08-26T13:48:34.164Z,39.65
2022-08-26T13:52:41.440Z,39.17
2022-08-26T13:56:49.320Z,38.54
2022-08-26T14:00:58.212Z,38.84
2022-08-26T14:05:06.330Z,38.91
2022-08-26T14:09:14.161Z,39.91
2022-08-26T14:13:22.657Z,39.17
2022-08-26T14:17:32.621Z,39.41
2022-08-26T14:21:41.034Z,39.42
2022-08-26T14:25:49.046Z,39.98
2022-08-26T14:29:57.414Z,40.18
2022-08-26T14:34:09.775Z,39.72
2022-08-26T14:38:17.993Z,39.69
2022-08-26T14:42:31.507Z,40.09
2022-08-26T14:46:43.993Z,40.94
2022-08-26T14:50:52.103Z,40.94
2022-08-26T14:55:02.931Z,39.46
2022-08-26T14:59:12.120Z,39.98
2022-08-26T15:03:21.250Z,40.17
2022-08-26T15:07:31.409Z,40.83
2022-08-26T15:11:39.820Z,40.42
2022-08-26T15:15:48.511Z,40.57
2022-08-26T15:19:56.211Z,40.72
2022-08-26T15:24:04.619Z,41.05
2022-08-26T15:28:12.489Z,40.65
2022-08-26T15:32:20.144Z,41.18
2022-08-26T15:36:30.461Z,40.75
2022-08-26T15:40:40.462Z,40.31
2022-08-26T15:44:50.528Z,40.04
2022-08-26T15:48:58.622Z,39.79
2022-08-26T15:53:08.145Z,40.16
2022-08-26T15:57:18.701Z,39.93
2022-08-26T16:01:29.104Z,41.10
2022-08-26T16:05:39.665Z,41.74
2022-08-26T16:09:49.202Z,42.22
2022-08-26T16:14:01.788Z,42.03
2022-08-26T16:18:11.670Z,42.50
2022-08-26T16:22:19.825Z,43.10
2022-08-26T16:26:29.965Z,43.06
2022-08-26T16:30:38.061Z,43.41
2022-08-26T16:34:56.410Z,43.51
2022-08-26T16:39:05.466Z,44.29
2022-08-26T16:43:15.206Z,44.94
2022-08-26T16:47:23.579Z,45.84
2022-08-26T16:51:32.764Z,46.71
2022-08-26T16:55:49.951Z,46.84
2022-08-26T16:59:57.917Z,47.72
2022-08-26T17:04:06.492Z,48.74
2022-08-26T17:08:21.846Z,47.76
2022-08-26T17:12:38.552Z,47.87
2022-08-26T17:16:47.320Z,48.18
2022-08-26T17:20:56.743Z,49.09
2022-08-26T17:25:05.809Z,49.85
2022-08-26T17:29:14.070Z,51.62
2022-08-26T17:33:24.421Z,55.32
2022-08-26T17:37:34.843Z,57.62
2022-08-26T17:41:45.228Z,58.12
2022-08-26T17:45:53.030Z,56.39
2022-08-26T17:50:01.729Z,57.62
2022-08-26T17:54:09.508Z,58.39
2022-08-26T17:58:17.347Z,59.78
2022-08-26T18:02:25.787Z,60.20
2022-08-26T18:06:33.972Z,61.45
2022-08-26T18:10:41.565Z,60.75
2022-08-26T18:14:51.195Z,60.86
2022-08-26T18:19:00.361Z,61.43
2022-08-26T18:23:09.913Z,61.41
2022-08-26T18:27:18.252Z,61.86
2022-08-26T18:31:27.027Z,62.46
2022-08-26T18:35:35.267Z,62.91
2022-08-26T18:39:43.308Z,63.61
2022-08-26T18:43:51.842Z,64.50
2022-08-26T18:48:00.078Z,64.85
2022-08-26T18:52:08.286Z,64.76
2022-08-26T18:56:18.482Z,64.67
2022-08-26T19:00:26.573Z,65.78
2022-08-26T19:04:34.846Z,66.02
2022-08-26T19:08:44.540Z,66.42
2022-08-26T19:12:54.516Z,66.55
2022-08-26T19:17:05.891Z,66.62
2022-08-26T19:21:13.504Z,66.41
2022-08-26T19:25:22.922Z,66.59
2022-08-26T19:29:35.292Z,67.40
2022-08-26T19:33:45.591Z,67.80
2022-08-26T19:37:53.104Z,67.46
2022-08-26T19:42:01.103Z,67.61
2022-08-26T19:46:14.812Z,67.55
2022-08-26T19:50:22.896Z,67.74
2022-08-26T19:54:31.275Z,68.33
2022-08-26T19:58:40.761Z,68.74
2022-08-26T20:02:48.960Z,68.92
2022-08-26T20:06:57.771Z,68.78
2022-08-26T20:11:09.296Z,69.25
2022-08-26T20:15:18.242Z,69.67
2022-08-26T20:19:43.532Z,70.07
2022-08-26T20:23:52.596Z,70.26
2022-08-26T20:28:01.814Z,70.99
2022-08-26T20:32:12.382Z,71.39
2022-08-26T20:36:21.618Z,70.76
2022-08-26T20:40:29.441Z,70.42
2022-08-26T20:44:38.052Z,69.89
2022-08-26T20:48:51.199Z,69.95
2022-08-26T20:52:59.602Z,70.31
2022-08-26T20:57:07.776Z,70.39
2022-08-26T21:01:22.821Z,70.28
2022-08-26T21:05:32.309Z,71.01
2022-08-26T21:09:40.241Z,71.37
2022-08-26T21:14:06.969Z,71.48
2022-08-26T21:18:18.973Z,71.97
2022-08-26T21:22:27.193Z,72.03
2022-08-26T21:26:35.278Z,71.98
2022-08-26T21:30:43.576Z,72.48
2022-08-26T21:34:51.391Z,72.92
2022-08-26T21:39:00.239Z,72.92
2022-08-26T21:43:09.009Z,73.12
2022-08-26T21:47:22.367Z,73.53
2022-08-26T21:51:32.430Z,73.90
2022-08-26T21:55:42.687Z,74.20
2022-08-26T21:59:50.632Z,74.22
2022-08-26T22:03:58.782Z,74.30
2022-08-26T22:08:06.979Z,74.18
2022-08-26T22:12:18.312Z,74.51
2022-08-26T22:16:28.803Z,74.33
2022-08-26T22:20:38.456Z,74.21
2022-08-26T22:24:47.363Z,74.19
2022-08-26T22:28:58.760Z,74.09
2022-08-26T22:33:08.552Z,74.13
2022-08-26T22:37:17.115Z,74.70
2022-08-26T22:41:25.055Z,74.75
2022-08-26T22:45:33.840Z,74.91
2022-08-26T22:49:42.114Z,75.13
2022-08-26T22:53:50.182Z,75.55
2022-08-26T22:57:58.397Z,75.74
2022-08-26T23:02:06.582Z,75.97
2022-08-26T23:06:16.929Z,76.20
2022-08-26T23:10:25.506Z,76.26
2022-08-26T23:14:35.508Z,76.49
2022-08-26T23:18:43.596Z,76.57
2022-08-26T23:22:51.629Z,76.86
2022-08-26T23:26:59.284Z,76.95
2022-08-26T23:31:07.949Z,76.83
2022-08-26T23:35:22.280Z,76.93
2022-08-26T23:39:30.059Z,77.00
2022-08-26T23:43:38.102Z,76.93
2022-08-26T23:47:47.659Z,76.94
2022-08-26T23:52:13.306Z,77.12
2022-08-26T23:56:21.490Z,77.19
